Latest Coastal Weather Observations for Gabo Island

IDV60701

Issued at 1:21 am EST Wednesday 29 July 2015 (issued every 10 minutes, with the page automatically refreshed every 10 minutes)

About coastal observations | Map of coastal stations | Coastal observations for VIC | Marine services | Other Formats
Station Details ID: 084016 Name: GABO ISLAND LIGHTHOUSE Lat: -37.57 Lon: 149.92 Height: 15.2 m
Data from the previous 72 hours. | See also: Recent months at Gabo Island
Date/Time
EST
Temp

°C
Wind Pressure Rain
since 9am
mm
Weather Cloud Vis
km
Sea
Height
m
Swell
Dir
 
Speed
knots
Gust
knots
hPa Trend Height
m
Period
s
Dir
29/01:00am 9.9 WNW 12 16 1032.7 - 0.0 - - - - - - -
29/12:30am 10.0 WNW 10 15 1032.6 - 0.0 - - - - - - -
29/12:00am 10.7 W 17 23 1032.8 - 0.0 - - - - - - -
 
Date/Time
EST
Temp

°C
Wind Pressure Rain
since 9am
mm
Weather Cloud Vis
km
Sea
Height
m
Swell
Dir
 
Speed
knots
Gust
knots
hPa Trend Height
m
Period
s
Dir
28/11:30pm 11.1 W 18 23 1032.7 - 0.0 - - - - - - -
28/11:00pm 11.2 WSW 17 21 1032.5 - 0.0 - - - - - - -
28/10:30pm 11.5 WSW 15 19 1032.6 - 0.0 - - - - - - -
28/10:00pm 11.2 W 15 19 1032.7 - 0.0 - - - - - - -
28/09:30pm 11.4 W 13 17 1032.8 - 0.0 - - - - - - -
28/09:00pm 11.8 W 13 17 1032.8 - 0.0 Fine Mostly cloudy 20 2 2.0 9 S
28/08:30pm 11.4 W 13 18 1032.6 - 0.0 - - - - - - -
28/08:00pm 11.5 WSW 17 21 1032.3 - 0.0 - - - - - - -
28/07:30pm 12.1 WSW 19 24 1032.0 - 0.0 - - - - - - -
28/07:00pm 12.1 WSW 20 25 1031.6 - 0.0 - - - - - - -
28/06:30pm 12.2 WSW 24 29 1031.1 - 0.0 - - - - - - -
28/06:00pm 12.3 WSW 24 29 1030.7 - 0.0 - - - - - - -
28/05:30pm 12.4 WSW 28 34 1030.4 - 0.0 - - - - - - -
28/05:00pm 12.7 WSW 27 33 1030.2 - 0.0 - - - - - - -
28/04:30pm 12.7 WSW 26 33 1029.9 - 0.0 - - - - - - -
28/04:00pm 12.9 WSW 27 35 1030.0 - 0.0 - - - - - - -
28/03:47pm 13.2 WSW 27 37 1030.0 - 0.0 - - - - - - -
28/03:30pm 13.2 WSW 29 36 1030.0 - 0.0 - - - - - - -
28/03:00pm 13.2 WSW 27 33 1029.9 - 0.0 Fine Mostly clear 15 3 3.0 9 S
28/02:30pm 13.3 WSW 27 33 1029.8 - 0.0 - - - - - - -
28/02:10pm 13.6 WSW 26 36 1029.7 - 0.0 - - - - - - -
28/02:00pm 13.4 WSW 29 35 1029.7 - 0.0 - - - - - - -
28/01:30pm 13.5 SW 28 35 1029.8 - 0.0 - - - - - - -
28/01:00pm 13.6 SW 25 31 1029.9 - 0.0 - - - - - - -
28/12:30pm 13.8 WSW 25 30 1030.2 - 0.0 - - - - - - -
28/12:00pm 13.5 WSW 24 31 1030.6 - 0.0 - - - - - - -
28/11:30am 13.3 WSW 26 31 1030.6 - 0.0 - - - - - - -
28/11:16am 13.1 WSW 23 33 1030.6 - 0.0 - - - - - - -
28/11:00am 13.1 WSW 24 32 1030.7 - 0.0 - - - - - - -
28/10:30am 13.0 WSW 23 29 1030.9 - 0.0 - - - - - - -
28/10:00am 13.1 WSW 22 26 1030.7 - 0.0 - - - - - - -
28/09:30am 12.8 WSW 21 27 1030.5 - 0.0 - - - - - - -
28/09:00am 12.1 WSW 23 28 1030.3 - 0.0 Fine Partly cloudy 20 3 2.5 11 S
28/08:30am 11.8 W 24 30 1029.8 - 0.0 - - - - - - -
28/08:00am 11.6 WSW 26 35 1029.3 - 0.0 - - - - - - -
28/07:30am 11.6 WSW 26 33 1029.0 - 0.0 - - - - - - -
28/07:00am 11.6 WSW 25 31 1028.4 - 0.0 - - - - - - -
28/06:30am 11.5 W 24 30 1027.9 - 0.0 - - - - - - -
28/06:00am 11.4 W 24 31 1027.4 - 0.0 - - - - - - -
28/05:55am 11.4 WSW 24 34 1027.3 - 0.0 - - - - - - -
28/05:30am 11.3 WSW 23 31 1027.1 - 0.0 - - - - - - -
28/05:00am 11.4 W 23 31 1026.7 - 0.0 - - - - - - -
28/04:30am 11.5 WSW 24 31 1026.8 - 0.0 - - - - - - -
28/04:00am 11.4 W 25 36 1026.2 - 0.0 - - - - - - -
28/03:56am 11.2 WSW 26 36 1026.2 - 0.0 - - - - - - -
28/03:30am 11.2 WSW 26 33 1026.1 - 0.0 - - - - - - -
28/03:00am 11.1 W 25 33 1025.9 - 0.0 Fine Mostly clear 20 3 2.5 9 SW
28/02:42am 11.2 WSW 23 33 1026.1 - 0.0 - - - - - - -
28/02:30am 11.2 WSW 25 32 1026.1 - 0.0 - - - - - - -
28/02:00am 10.9 W 23 30 1026.2 - 0.0 - - - - - - -
28/01:30am 10.9 W 26 33 1025.8 - 0.0 - - - - - - -
28/01:00am 11.1 WSW 26 32 1025.8 - 0.0 - - - - - - -
28/12:30am 11.3 WSW 28 36 1025.7 - 0.0 - - - - - - -
28/12:00am 11.2 W 28 35 1025.5 - 0.0 - - - - - - -
 
Date/Time
EST
Temp

°C
Wind Pressure Rain
since 9am
mm
Weather Cloud Vis
km
Sea
Height
m
Swell
Dir
 
Speed
knots
Gust
knots
hPa Trend Height
m
Period
s
Dir
27/11:30pm 11.4 WSW 27 35 1025.6 - 0.0 - - - - - - -
27/11:00pm 11.3 WSW 28 35 1025.8 - 0.0 - - - - - - -
27/10:30pm 11.3 WSW 28 35 1025.6 - 0.0 - - - - - - -
27/10:02pm 11.2 WSW 29 39 1025.1 - 0.0 - - - - - - -
27/10:00pm 11.1 WSW 29 37 1025.1 - 0.0 - - - - - - -
27/09:30pm 11.2 WSW 29 38 1025.1 - 0.0 - - - - - - -
27/09:03pm 11.0 WSW 29 39 1025.0 - 0.0 - - - - - - -
27/09:00pm 11.1 WSW 29 38 1025.1 - 0.0 Fine Mostly clear 15 3 3.0 7 SW
27/08:30pm 11.1 WSW 28 36 1025.0 - 0.0 - - - - - - -
27/08:00pm 11.2 WSW 29 37 1024.8 - 0.0 - - - - - - -
27/07:42pm 11.4 WSW 28 39 1024.7 - 0.0 - - - - - - -
27/07:30pm 11.2 WSW 28 36 1024.5 - 0.0 - - - - - - -
27/07:01pm 11.1 WSW 30 41 1024.3 - 0.0 - - - - - - -
27/07:00pm 11.6 WSW 29 37 1024.2 - 0.0 - - - - - - -
27/06:30pm 11.3 WSW 28 35 1024.1 - 0.0 - - - - - - -
27/06:15pm 11.3 WSW 28 38 1024.1 - 0.0 - - - - - - -
27/06:00pm 11.5 WSW 27 35 1023.9 - 0.0 - - - - - - -
27/05:30pm 11.4 WSW 29 36 1023.4 - 0.0 - - - - - - -
27/05:00pm 11.6 WSW 27 34 1023.1 - 0.0 - - - - - - -
27/04:30pm 11.8 WSW 27 35 1022.7 - 0.0 - - - - - - -
27/04:00pm 12.2 WSW 27 37 1022.3 - 0.0 - - - - - - -
27/03:30pm 12.1 WSW 27 36 1022.1 - 0.0 - - - - - - -
27/03:00pm 11.9 WSW 31 43 1022.1 - 0.0 Distant precip. Mostly cloudy 5 3 3.0 7 SW
27/02:32pm 12.3 WSW 29 39 1021.8 - 0.0 - - - - - - -
27/02:30pm 12.2 WSW 29 36 1021.8 - 0.0 - - - - - - -
27/02:00pm 12.2 WSW 33 43 1021.5 - 0.0 - - - - - - -
27/01:32pm 12.3 WSW 30 40 1021.4 - 0.0 - - - - - - -
27/01:30pm 12.2 WSW 30 37 1021.5 - 0.0 - - - - - - -
27/01:00pm 12.2 WSW 32 40 1021.1 - 0.0 - - - - - - -
27/12:30pm 11.9 WSW 31 41 1021.5 - 0.0 - - - - - - -
27/12:00pm 12.2 WSW 30 39 1021.3 - 0.0 - - - - - - -
27/11:49am 11.6 WSW 30 40 1021.3 - 0.0 - - - - - - -
27/11:30am 11.1 WSW 31 40 1021.5 - 0.0 - - - - - - -
27/11:00am 11.0 WSW 32 44 1021.4 - 0.0 - - - - - - -
27/10:34am 10.9 WSW 33 44 1021.2 - 0.0 - - - - - - -
27/10:30am 11.0 WSW 34 43 1021.2 - 0.0 - - - - - - -
27/10:20am 10.8 WSW 33 45 1020.9 - 0.0 - - - - - - -
27/10:00am 10.8 WSW 33 41 1020.6 - 0.0 - - - - - - -
27/09:39am 10.7 WSW 32 43 1020.2 - 0.0 - - - - - - -
27/09:30am 10.7 WSW 34 43 1020.0 - 0.0 - - - - - - -
27/09:24am 10.6 WSW 33 43 1020.0 - 0.0 - - - - - - -
27/09:00am 10.1 W 33 42 1019.8 - 0.0 Distant precip. Partly cloudy 15 3 2.5 7 SW
27/08:40am 9.9 WSW 33 43 1019.6 - 0.0 - - - - - - -
27/08:30am 10.3 W 34 42 1019.6 - 0.0 - - - - - - -
27/08:10am 9.7 W 32 42 1019.4 - 0.0 - - - - - - -
27/08:00am 9.6 WSW 33 41 1019.2 - 0.0 - - - - - - -
27/07:34am 9.4 WSW 32 42 1019.1 - 0.0 - - - - - - -
27/07:30am 9.3 WSW 33 42 1018.9 - 0.0 - - - - - - -
27/07:01am 9.1 W 32 43 1018.4 - 0.0 - - - - - - -
27/07:00am 9.0 W 32 40 1018.5 - 0.0 - - - - - - -
27/06:30am 9.0 WSW 32 42 1018.3 - 0.0 - - - - - - -
27/06:00am 9.4 W 31 44 1017.9 - 0.0 - - - - - - -
27/05:30am 9.3 WSW 29 39 1017.3 - 0.0 - - - - - - -
27/05:00am 9.3 W 30 43 1017.3 - 0.0 - - - - - - -
27/04:33am 9.4 W 29 44 1017.2 - 0.0 - - - - - - -
27/04:30am 9.5 W 29 38 1017.2 - 0.0 - - - - - - -
27/04:10am 9.6 W 30 41 1016.9 - 0.0 - - - - - - -
27/04:00am 9.5 W 29 36 1017.0 - 0.0 - - - - - - -
27/03:47am 9.8 W 29 39 1016.8 - 0.0 - - - - - - -
27/03:30am 9.8 W 27 35 1016.4 - 0.0 - - - - - - -
27/03:00am 9.8 W 27 33 1016.4 - 0.0 Fine Mostly clear 30 3 2.5 7 SW
27/02:30am 10.0 W 28 40 1016.3 - 0.0 - - - - - - -
27/02:00am 10.1 W 27 38 1016.1 - 0.0 - - - - - - -
27/01:47am 10.2 W 26 36 1016.1 - 0.0 - - - - - - -
27/01:30am 10.1 W 25 31 1015.9 - 0.0 - - - - - - -
27/01:00am 10.0 W 26 36 1015.8 - 0.0 - - - - - - -
27/12:30am 10.1 W 24 32 1015.9 - 0.0 - - - - - - -
27/12:00am 9.9 W 23 31 1015.7 - 0.0 - - - - - - -
 
Date/Time
EST
Temp

°C
Wind Pressure Rain
since 9am
mm
Weather Cloud Vis
km
Sea
Height
m
Swell
Dir
 
Speed
knots
Gust
knots
hPa Trend Height
m
Period
s
Dir
26/11:30pm 10.0 W 23 31 1015.4 - 0.0 - - - - - - -
26/11:00pm 10.0 W 24 35 1015.3 - 0.0 - - - - - - -
26/10:57pm 9.9 W 24 35 1015.2 - 0.0 - - - - - - -
26/10:30pm 9.9 W 24 33 1014.9 - 0.0 - - - - - - -
26/10:22pm 9.8 W 22 33 1014.8 - 0.0 - - - - - - -
26/10:00pm 9.9 W 22 29 1015.0 - 0.0 - - - - - - -
26/09:30pm 9.9 W 20 25 1014.8 - 0.0 - - - - - - -
26/09:00pm 9.3 W 13 20 1014.3 - 0.0 Fine Clear 30 1 1.2 7 S
26/08:30pm 9.3 W 15 22 1013.9 - 0.0 - - - - - - -
26/08:00pm 9.0 W 13 18 1014.0 - 0.0 - - - - - - -
26/07:30pm 8.9 W 12 15 1013.8 - 0.0 - - - - - - -
26/07:00pm 9.0 W 16 21 1013.5 - 0.0 - - - - - - -
26/06:30pm 9.5 WSW 18 23 1013.0 - 0.0 - - - - - - -
26/06:16pm 9.5 WSW 21 30 1012.9 - 0.0 - - - - - - -
26/06:03pm 9.8 WSW 32 43 1012.8 - 0.0 - - - - - - -
26/06:00pm 10.2 WSW 28 43 1012.7 - 0.0 - - - - - - -
26/05:55pm 10.5 WSW 24 43 1012.6 - 0.0 - - - - - - -
26/05:52pm 11.1 WSW 21 32 1012.5 - 0.0 - - - - - - -
26/05:30pm 11.2 WSW 19 27 1011.7 - 0.0 - - - - - - -
26/05:00pm 11.4 W 19 24 1011.2 - 0.0 - - - - - - -
26/04:30pm 12.1 WSW 23 30 1010.6 - 0.0 - - - - - - -
26/04:00pm 12.1 WSW 18 24 1010.2 - 0.0 - - - - - - -
26/03:30pm 12.7 SW 22 26 1009.7 - 0.0 - - - - - - -
26/03:00pm 12.7 WSW 15 19 1009.6 - 0.0 Fine Partly cloudy 30 1 1.0 7 S
26/02:30pm 12.3 SW 19 23 1009.2 - 0.0 - - - - - - -
26/02:00pm 12.0 SW 20 24 1008.9 - 0.0 - - - - - - -
26/01:30pm 12.0 SW 14 17 1008.9 - 0.0 - - - - - - -
26/01:00pm 12.3 W 11 14 1009.2 - 0.0 - - - - - - -
26/12:30pm 11.9 WSW 21 26 1009.4 - 0.0 - - - - - - -
26/12:00pm 11.8 SW 27 31 1009.2 - 0.0 - - - - - - -
26/11:30am 12.5 SW 24 28 1009.5 - 0.0 - - - - - - -
26/11:00am 12.4 SW 23 28 1009.4 - 0.0 - - - - - - -
26/10:30am 13.7 SW 18 22 1009.5 - 0.0 - - - - - - -
26/10:00am 14.7 WSW 12 19 1009.3 - 0.0 - - - - - - -
26/09:30am 14.6 N 10 15 1008.7 - 0.0 - - - - - - -
26/09:00am 14.2 N 13 19 1008.5 - 0.0 Fine Partly cloudy 30 1 0.5 9 S
26/08:30am 13.3 N 13 20 1008.8 - 0.0 - - - - - - -
26/08:00am 11.3 N 12 17 1008.7 - 0.0 - - - - - - -
26/07:30am 10.4 N 13 17 1008.8 - 0.0 - - - - - - -
26/07:00am 9.8 N 13 17 1009.0 - 0.0 - - - - - - -
26/06:30am 9.3 N 9 11 1009.0 - 0.0 - - - - - - -
26/06:00am 9.7 N 10 13 1009.0 - 0.0 - - - - - - -
26/05:30am 9.9 NNE 10 12 1009.1 - 0.0 - - - - - - -
26/05:00am 10.2 N 10 12 1009.1 - 0.0 - - - - - - -
26/04:30am 10.3 NNE 11 13 1008.9 - 0.0 - - - - - - -
26/04:00am 10.2 NNE 12 16 1009.2 - 0.0 - - - - - - -
26/03:30am 10.0 NNE 11 16 1009.6 - 0.0 - - - - - - -
26/03:00am 9.6 N 12 15 1010.0 - 0.0 Fine Clear 30 <0.5 0.5 9 S
26/02:30am 10.4 N 13 17 1010.4 - 0.0 - - - - - - -
26/02:00am 10.1 N 13 16 1010.6 - 0.0 - - - - - - -
26/01:30am 9.5 N 10 13 1011.3 - 0.0 - - - - - - -

Other Formats:

Comma delimited format used in spreadsheet applications
http://www.bom.gov.au/fwo/IDV60701/IDV60701.94933.axf

JavaScript Object Notation format (JSON) in row-major order
http://www.bom.gov.au/fwo/IDV60701/IDV60701.94933.json